Time;durP1;ratioP1;P1;durP2;ratioP2;P2;SDS_P1;SDS_P2;PMS_P1;PMS_P2;Temp;Humidity;BMP_temperature;BMP_pressure;BME280_temperature;BME280_humidity;BME280_pressure;Samples;Min_cycle;Max_cycle;Signal;HPM_P1;HPM_P2
2022/11/17 01:14:27;;;;;;;;;;;;;;;5.17;61.81;100572.47;5080939;28;20509;-60
2022/11/17 01:16:52;;;;;;;;;;;;;;;5.16;61.71;100575.97;5086305;28;19943;-60
2022/11/17 01:19:18;;;;;;;;;;;;;;;5.18;61.49;100568.09;5083410;28;19916;-60
2022/11/17 01:21:44;;;;;;;;;;;;;;;5.19;61.29;100575.88;5087649;28;19916;-58
2022/11/17 01:24:10;;;;;;;;;;;;;;;5.19;61.53;100565.44;5083103;28;19931;-58
2022/11/17 01:26:36;;;;;;;;;;;;;;;5.19;61.76;100572.41;5084740;28;19916;-61
2022/11/17 01:29:02;;;;;;;;;;;;;;;5.18;61.61;100566.34;5079996;28;19920;-58
2022/11/17 01:31:29;;;;;;;;;;;;;;;5.17;61.61;100562.03;5083207;28;19916;-60
2022/11/17 01:33:54;;;;;;;;;;;;;;;5.20;61.65;100561.06;5085246;28;19923;-59
2022/11/17 01:36:25;;;;;;;;;;;;;;;5.24;61.43;100561.78;5081997;28;19916;-58
2022/11/17 01:38:50;;;;;;;;;;;;;;;5.26;61.28;100557.34;5095707;22;19932;-53
2022/11/17 01:41:20;;;;;;;;;;;;;;;5.26;61.54;100552.16;5068547;28;19929;-53
2022/11/17 01:43:46;;;;;;;;;;;;;;;5.26;61.31;100547.78;5062867;28;19916;-62
2022/11/17 01:46:14;;;;;;;;;;;;;;;5.33;61.42;100559.69;5057042;28;20256;-56
2022/11/17 01:48:40;;;;;;;;;;;;;;;5.35;61.04;100546.59;5062761;28;19999;-53
2022/11/17 01:51:06;;;;;;;;;;;;;;;5.33;61.40;100551.00;5064245;28;19974;-53
2022/11/17 01:53:33;;;;;;;;;;;;;;;5.34;61.26;100552.72;5062253;28;19920;-53
2022/11/17 01:56:02;;;;;;;;;;;;;;;5.34;61.59;100542.28;5061744;28;19920;-53
2022/11/17 01:58:30;;;;;;;;;;;;;;;5.34;61.23;100552.72;5064139;28;19916;-53
2022/11/17 02:00:55;;;;;;;;;;;;;;;5.29;61.70;100554.63;5067073;28;20375;-58
2022/11/17 02:03:21;;;;;;;;;;;;;;;5.34;61.42;100543.13;5061283;28;19921;-53
2022/11/17 02:05:53;;;;;;;;;;;;;;;5.27;61.44;100544.28;5064815;28;20217;-53
2022/11/17 02:08:21;;;;;;;;;;;;;;;5.34;61.41;100544.88;5064168;28;20394;-53
2022/11/17 02:10:47;;;;;;;;;;;;;;;5.40;61.22;100547.25;5062888;28;19924;-57
2022/11/17 02:13:13;;;;;;;;;;;;;;;5.45;61.10;100542.69;5060921;28;19963;-53
2022/11/17 02:15:38;;;;;;;;;;;;;;;5.43;61.05;100547.13;5070493;28;19960;-54
2022/11/17 02:18:04;;;;;;;;;;;;;;;5.46;61.33;100540.91;5058943;28;20290;-53
2022/11/17 02:20:38;;;;;;;;;;;;;;;5.42;61.04;100540.19;5062160;28;19923;-53
2022/11/17 02:23:03;;;;;;;;;;;;;;;5.43;61.09;100536.69;5061273;28;20391;-53
2022/11/17 02:25:40;;;;;;;;;;;;;;;5.46;60.88;100530.47;5061818;28;19927;-53
2022/11/17 02:28:05;;;;;;;;;;;;;;;5.49;60.57;100533.84;5061320;28;19923;-53
2022/11/17 02:30:42;;;;;;;;;;;;;;;5.57;60.59;100533.53;5058698;28;19917;-53
2022/11/17 02:33:12;;;;;;;;;;;;;;;5.62;60.61;100533.34;5060455;28;19923;-52
2022/11/17 02:35:37;;;;;;;;;;;;;;;5.64;60.23;100528.91;5045142;28;19920;-55
2022/11/17 02:38:21;;;;;;;;;;;;;;;5.61;60.57;100526.41;5059974;28;20276;-53
2022/11/17 02:41:01;;;;;;;;;;;;;;;5.57;60.49;100511.78;5054748;28;20437;-60
2022/11/17 02:46:18;;;;;;;;;;;;;;;5.55;60.54;100511.88;5065077;28;19927;-53
2022/11/17 02:48:55;;;;;;;;;;;;;;;5.59;60.65;100504.75;5065131;28;19920;-53
2022/11/17 02:51:22;;;;;;;;;;;;;;;5.56;60.75;100508.34;5064504;28;19956;-53
2022/11/17 02:53:52;;;;;;;;;;;;;;;5.56;60.86;100507.47;5063555;28;19921;-52
2022/11/17 02:56:17;;;;;;;;;;;;;;;5.57;60.35;100504.81;5067442;28;20039;-56
2022/11/17 02:58:43;;;;;;;;;;;;;;;5.53;60.56;100505.84;5065467;28;20513;-52
2022/11/17 03:01:20;;;;;;;;;;;;;;;5.48;60.51;100498.22;5060025;28;19962;-53
2022/11/17 03:04:04;;;;;;;;;;;;;;;5.47;60.81;100506.94;5062905;28;21369;-56
2022/11/17 03:06:50;;;;;;;;;;;;;;;5.52;60.68;100509.38;5069745;28;19966;-56
2022/11/17 03:09:38;;;;;;;;;;;;;;;5.55;60.24;100506.66;5061782;28;20356;-56
2022/11/17 03:12:23;;;;;;;;;;;;;;;5.53;60.37;100500.63;5061237;28;19971;-55
2022/11/17 03:14:57;;;;;;;;;;;;;;;5.59;60.58;100502.13;5065428;28;19962;-56
2022/11/17 03:17:34;;;;;;;;;;;;;;;5.63;60.45;100507.16;5065349;28;19947;-55
2022/11/17 03:20:07;;;;;;;;;;;;;;;5.70;60.06;100512.16;5068895;28;19927;-56
2022/11/17 03:22:37;;;;;;;;;;;;;;;5.69;60.19;100506.06;5056395;28;19916;-54
2022/11/17 03:25:05;;;;;;;;;;;;;;;5.64;60.21;100505.41;5067120;28;19935;-52
2022/11/17 03:27:34;;;;;;;;;;;;;;;5.66;60.18;100508.81;5060423;28;20442;-52
2022/11/17 03:30:01;;;;;;;;;;;;;;;5.65;60.51;100492.28;5064364;28;20441;-53
2022/11/17 03:32:30;;;;;;;;;;;;;;;5.63;60.60;100485.44;5062364;28;19974;-53
2022/11/17 03:34:57;;;;;;;;;;;;;;;5.64;60.42;100487.97;5060161;28;19929;-53
2022/11/17 03:37:25;;;;;;;;;;;;;;;5.68;60.54;100487.88;5068298;28;19946;-55
2022/11/17 03:39:52;;;;;;;;;;;;;;;5.64;60.17;100492.38;5067117;28;20299;-57
2022/11/17 03:42:27;;;;;;;;;;;;;;;5.64;60.58;100481.94;5069444;28;19974;-54
2022/11/17 03:45:19;;;;;;;;;;;;;;;5.66;60.58;100474.88;5063874;28;19944;-56
2022/11/17 03:47:45;;;;;;;;;;;;;;;5.72;60.62;100479.00;5063814;28;19924;-54
2022/11/17 03:50:16;;;;;;;;;;;;;;;5.70;60.47;100479.03;5065409;28;20379;-55
2022/11/17 03:52:42;;;;;;;;;;;;;;;5.66;60.54;100467.06;5066952;28;19923;-53
2022/11/17 03:55:08;;;;;;;;;;;;;;;5.66;60.56;100469.66;5049422;28;19928;-53
2022/11/17 03:57:56;;;;;;;;;;;;;;;5.65;60.29;100473.19;5064687;28;19917;-53
2022/11/17 04:00:21;;;;;;;;;;;;;;;5.62;60.69;100468.09;5066010;28;19962;-53
2022/11/17 04:02:47;;;;;;;;;;;;;;;5.63;60.72;100472.41;5063912;28;19920;-54
2022/11/17 04:05:14;;;;;;;;;;;;;;;5.66;60.95;100480.09;5063985;28;20007;-53
2022/11/17 04:07:41;;;;;;;;;;;;;;;5.65;60.57;100470.56;5067388;28;20434;-57
2022/11/17 04:10:11;;;;;;;;;;;;;;;5.68;60.57;100469.59;5057136;28;20302;-54
2022/11/17 04:18:02;;;;;;;;;;;;;;;5.63;60.71;100472.41;5064003;28;19928;-54
2022/11/17 04:20:34;;;;;;;;;;;;;;;5.58;60.56;100450.84;5063954;28;19921;-56
2022/11/17 04:23:06;;;;;;;;;;;;;;;5.59;60.79;100457.75;5047609;28;20511;-53
2022/11/17 04:31:00;;;;;;;;;;;;;;;5.62;61.17;100465.47;5065248;28;20023;-54
2022/11/17 04:33:25;;;;;;;;;;;;;;;5.64;61.24;100467.09;5048384;28;19920;-55
2022/11/17 04:35:51;;;;;;;;;;;;;;;5.68;60.99;100461.75;5057010;28;19928;-53
2022/11/17 04:38:16;;;;;;;;;;;;;;;5.67;61.19;100466.16;5044980;28;20591;-53
2022/11/17 04:41:52;;;;;;;;;;;;;;;5.71;61.13;100464.25;5063719;28;19920;-53
2022/11/17 04:43:27;;;;;;;;;;;;;;;5.71;60.84;100462.47;5063113;28;19916;-53
2022/11/17 04:45:56;;;;;;;;;;;;;;;5.68;60.90;100464.38;5047582;28;19933;-56
2022/11/17 04:48:22;;;;;;;;;;;;;;;5.64;60.92;100461.03;5048324;28;19939;-53
2022/11/17 04:50:51;;;;;;;;;;;;;;;5.68;61.29;100459.16;5044211;28;20023;-54
2022/11/17 04:53:17;;;;;;;;;;;;;;;5.69;61.19;100461.69;5066411;28;19917;-56
2022/11/17 04:55:42;;;;;;;;;;;;;;;5.71;60.98;100461.63;5064111;28;20874;-54
2022/11/17 04:58:07;;;;;;;;;;;;;;;5.72;61.08;100458.94;5045662;28;19920;-54
2022/11/17 05:00:32;;;;;;;;;;;;;;;5.71;61.10;100457.25;5061907;28;19920;-54
2022/11/17 05:02:58;;;;;;;;;;;;;;;5.70;61.21;100460.78;5066707;28;19944;-53
2022/11/17 05:05:23;;;;;;;;;;;;;;;5.68;61.25;100457.38;5068537;28;20534;-54
2022/11/17 05:07:48;;;;;;;;;;;;;;;5.69;61.38;100464.28;5063894;28;19924;-54
2022/11/17 05:10:14;;;;;;;;;;;;;;;5.69;60.98;100469.50;5061965;28;19917;-56
2022/11/17 05:17:03;;;;;;;;;;;;;;;5.67;61.01;100455.69;5067368;28;20019;-56
2022/11/17 05:18:08;;;;;;;;;;;;;;;5.69;61.37;100458.25;5063278;28;20370;-54
2022/11/17 05:20:33;;;;;;;;;;;;;;;5.72;60.88;100453.72;5064686;28;20491;-56
2022/11/17 05:25:44;;;;;;;;;;;;;;;5.70;60.99;100452.94;5019617;28;19960;-54
2022/11/17 05:28:10;;;;;;;;;;;;;;;5.73;61.25;100444.97;5058329;28;19956;-54
2022/11/17 05:30:35;;;;;;;;;;;;;;;5.77;61.15;100445.69;5061268;28;20432;-54
2022/11/17 05:33:00;;;;;;;;;;;;;;;5.74;61.19;100451.91;5062251;28;19921;-54
2022/11/17 05:35:26;;;;;;;;;;;;;;;5.67;61.05;100442.66;5065247;28;19942;-56
2022/11/17 05:37:51;;;;;;;;;;;;;;;5.70;61.38;100436.44;5065191;28;19927;-54
2022/11/17 05:40:16;;;;;;;;;;;;;;;5.70;61.25;100442.50;5064982;28;19927;-59
2022/11/17 05:42:44;;;;;;;;;;;;;;;5.73;60.93;100450.22;5063828;28;19991;-54
2022/11/17 05:45:09;;;;;;;;;;;;;;;5.75;60.92;100440.56;5062902;28;19931;-53
2022/11/17 05:47:34;;;;;;;;;;;;;;;5.75;61.07;100437.94;5069853;28;19954;-53
2022/11/17 05:50:00;;;;;;;;;;;;;;;5.73;60.76;100439.75;5068081;28;20294;-56
2022/11/17 05:52:25;;;;;;;;;;;;;;;5.76;61.00;100444.84;5068453;28;19916;-54
2022/11/17 05:54:51;;;;;;;;;;;;;;;5.78;60.90;100442.16;5063387;28;19977;-53
2022/11/17 05:57:21;;;;;;;;;;;;;;;5.76;61.13;100447.47;5050549;28;19920;-56
2022/11/17 05:59:53;;;;;;;;;;;;;;;5.77;61.02;100441.34;5044365;28;19923;-58
2022/11/17 06:02:28;;;;;;;;;;;;;;;5.77;61.11;100441.34;5065425;28;19931;-54
2022/11/17 06:04:53;;;;;;;;;;;;;;;5.73;60.99;100442.38;5045691;28;19943;-52
2022/11/17 06:07:19;;;;;;;;;;;;;;;5.72;61.16;100440.66;5068273;28;20466;-57
2022/11/17 06:09:44;;;;;;;;;;;;;;;5.72;60.91;100448.50;5067304;28;20432;-54
2022/11/17 06:12:10;;;;;;;;;;;;;;;5.71;61.09;100454.63;5067027;28;19917;-51
2022/11/17 06:14:38;;;;;;;;;;;;;;;5.70;61.08;100446.88;5065211;28;19926;-54
2022/11/17 06:17:10;;;;;;;;;;;;;;;5.74;61.19;100449.28;5065675;28;19916;-58
2022/11/17 06:19:38;;;;;;;;;;;;;;;5.71;60.88;100435.53;5064415;28;20411;-56
2022/11/17 06:22:03;;;;;;;;;;;;;;;5.61;61.16;100438.50;5056373;28;20380;-53
2022/11/17 06:24:30;;;;;;;;;;;;;;;5.61;61.52;100446.34;5065167;28;19920;-56
2022/11/17 06:26:55;;;;;;;;;;;;;;;5.60;61.31;100442.03;5065845;28;19921;-55
2022/11/17 06:29:21;;;;;;;;;;;;;;;5.57;61.23;100446.53;5067113;28;19925;-53
2022/11/17 06:31:46;;;;;;;;;;;;;;;5.49;61.97;100442.50;5057025;28;20047;-54
2022/11/17 06:34:12;;;;;;;;;;;;;;;5.51;61.91;100449.41;5057961;28;19928;-54
2022/11/17 06:36:37;;;;;;;;;;;;;;;5.49;62.27;100458.16;5062233;28;19920;-52
2022/11/17 06:39:02;;;;;;;;;;;;;;;5.45;62.14;100448.75;5059598;28;19962;-53
2022/11/17 06:41:28;;;;;;;;;;;;;;;5.54;62.15;100446.66;5060259;28;20304;-56
2022/11/17 06:43:53;;;;;;;;;;;;;;;5.59;62.00;100442.09;5037468;28;20023;-54
2022/11/17 06:46:18;;;;;;;;;;;;;;;5.63;61.50;100446.28;5056969;28;19932;-55
2022/11/17 06:48:44;;;;;;;;;;;;;;;5.63;61.41;100438.47;5060097;28;19920;-52
2022/11/17 06:51:09;;;;;;;;;;;;;;;5.60;61.68;100435.97;5066329;28;19947;-53
2022/11/17 06:53:34;;;;;;;;;;;;;;;5.65;61.34;100439.25;5063093;28;19928;-52
2022/11/17 06:56:10;;;;;;;;;;;;;;;5.65;61.04;100439.25;5061957;28;21142;-52
2022/11/17 06:58:37;;;;;;;;;;;;;;;5.67;61.17;100436.56;5057615;28;19986;-55
2022/11/17 07:01:05;;;;;;;;;;;;;;;5.65;61.07;100434.03;5058323;28;19916;-54
2022/11/17 07:03:32;;;;;;;;;;;;;;;5.64;61.32;100442.78;5061705;28;19934;-53
2022/11/17 07:05:58;;;;;;;;;;;;;;;5.63;61.32;100433.25;5054774;28;19924;-54
2022/11/17 07:08:26;;;;;;;;;;;;;;;5.63;61.36;100438.47;5045973;28;19999;-55
2022/11/17 07:10:53;;;;;;;;;;;;;;;5.65;61.05;100426.19;5071528;28;19927;-54
2022/11/17 07:13:24;;;;;;;;;;;;;;;5.68;61.01;100433.88;5069836;28;19974;-53
2022/11/17 07:15:50;;;;;;;;;;;;;;;5.73;61.14;100436.31;5066357;28;19936;-54
2022/11/17 07:18:19;;;;;;;;;;;;;;;5.74;60.85;100431.00;5072000;28;20019;-54
2022/11/17 07:20:45;;;;;;;;;;;;;;;5.76;60.75;100428.31;5066276;28;19917;-52
2022/11/17 07:23:10;;;;;;;;;;;;;;;5.74;61.11;100435.41;5072914;28;20353;-52
2022/11/17 07:25:36;;;;;;;;;;;;;;;5.65;60.93;100426.19;5061983;28;19933;-54
2022/11/17 07:28:02;;;;;;;;;;;;;;;5.66;60.85;100427.91;5068715;28;19924;-56
2022/11/17 07:30:27;;;;;;;;;;;;;;;5.65;60.68;100423.59;5073083;28;19920;-53
2022/11/17 07:32:52;;;;;;;;;;;;;;;5.59;60.73;100423.84;5072658;28;20014;-54
2022/11/17 07:35:18;;;;;;;;;;;;;;;5.58;60.70;100424.75;5071699;28;20030;-52
2022/11/17 07:37:43;;;;;;;;;;;;;;;5.60;60.87;100428.13;5068991;28;19920;-55
2022/11/17 07:40:09;;;;;;;;;;;;;;;5.65;60.81;100423.59;5082193;22;20381;-57
2022/11/17 07:42:34;;;;;;;;;;;;;;;5.65;61.07;100419.19;5067557;28;19920;-57
2022/11/17 07:45:00;;;;;;;;;;;;;;;5.66;60.55;100420.06;5065678;28;20293;-57
2022/11/17 07:47:25;;;;;;;;;;;;;;;5.65;60.61;100416.59;5064758;28;19986;-58
2022/11/17 07:49:50;;;;;;;;;;;;;;;5.64;60.83;100406.22;5070933;28;19920;-57
2022/11/17 07:52:15;;;;;;;;;;;;;;;5.68;60.85;100409.53;5067519;28;20330;-59
2022/11/17 07:54:41;;;;;;;;;;;;;;;5.68;61.00;100405.16;5067833;28;19979;-58
2022/11/17 07:57:06;;;;;;;;;;;;;;;5.68;60.61;100410.38;5082111;28;19924;-56
2022/11/17 07:59:31;;;;;;;;;;;;;;;5.71;60.82;100410.25;5082778;28;19928;-58
2022/11/17 08:01:57;;;;;;;;;;;;;;;5.71;60.41;100399.81;5089002;28;20256;-57
2022/11/17 08:04:22;;;;;;;;;;;;;;;5.68;60.65;100397.31;5077600;28;19974;-56
2022/11/17 08:06:47;;;;;;;;;;;;;;;5.62;60.53;100380.16;5080261;28;19926;-59
2022/11/17 08:09:14;;;;;;;;;;;;;;;5.61;60.65;100391.53;5081046;28;19935;-56
2022/11/17 08:11:39;;;;;;;;;;;;;;;5.65;60.59;100400.94;5081228;28;19920;-58
2022/11/17 08:14:05;;;;;;;;;;;;;;;5.71;60.45;100410.25;5066882;28;19969;-56
2022/11/17 08:16:30;;;;;;;;;;;;;;;5.75;60.29;100398.78;5079979;28;19938;-57
2022/11/17 08:18:56;;;;;;;;;;;;;;;5.77;60.29;100417.84;5081736;28;20449;-56
2022/11/17 08:21:22;;;;;;;;;;;;;;;5.74;59.94;100404.91;5087431;28;19924;-57
2022/11/17 08:23:51;;;;;;;;;;;;;;;5.79;59.86;100410.78;5087268;28;20011;-57
2022/11/17 08:26:19;;;;;;;;;;;;;;;5.85;59.96;100417.50;5082713;28;19916;-58
2022/11/17 08:28:44;;;;;;;;;;;;;;;5.88;60.04;100412.16;5079645;28;19934;-58
2022/11/17 08:31:09;;;;;;;;;;;;;;;5.87;59.89;100412.22;5076445;28;19928;-56
2022/11/17 08:33:35;;;;;;;;;;;;;;;5.92;59.66;100412.88;5080486;28;19931;-58
2022/11/17 08:36:01;;;;;;;;;;;;;;;5.96;59.42;100417.06;5082623;28;19924;-57
2022/11/17 08:38:27;;;;;;;;;;;;;;;5.93;59.71;100419.78;5059445;28;19916;-57
2022/11/17 08:41:11;;;;;;;;;;;;;;;5.91;59.89;100417.22;5079228;28;20362;-56
2022/11/17 08:43:36;;;;;;;;;;;;;;;5.93;59.42;100425.00;5083007;28;19993;-57
2022/11/17 08:46:02;;;;;;;;;;;;;;;5.95;59.53;100425.78;5085678;28;20549;-60
2022/11/17 08:48:30;;;;;;;;;;;;;;;5.98;59.53;100419.59;5084805;28;20023;-58
2022/11/17 08:50:56;;;;;;;;;;;;;;;5.92;59.80;100412.88;5084519;28;20027;-57
2022/11/17 08:53:22;;;;;;;;;;;;;;;5.93;59.62;100417.19;5080319;28;20343;-58
2022/11/17 08:55:48;;;;;;;;;;;;;;;5.90;59.93;100412.91;5087522;28;19931;-58
2022/11/17 08:58:13;;;;;;;;;;;;;;;5.90;59.60;100414.69;5080786;28;19916;-57
2022/11/17 09:00:39;;;;;;;;;;;;;;;5.87;59.94;100412.22;5084124;28;20068;-56
2022/11/17 09:03:08;;;;;;;;;;;;;;;5.88;59.80;100426.97;5080823;28;19916;-57
2022/11/17 09:05:37;;;;;;;;;;;;;;;5.88;59.65;100425.22;5079043;28;19931;-57
2022/11/17 09:08:02;;;;;;;;;;;;;;;5.87;59.58;100427.88;5075985;28;19916;-57
2022/11/17 09:10:28;;;;;;;;;;;;;;;5.86;59.96;100434.00;5082097;28;19931;-56
2022/11/17 09:12:56;;;;;;;;;;;;;;;5.91;59.82;100426.84;5088172;28;20006;-56
2022/11/17 09:15:22;;;;;;;;;;;;;;;5.94;59.75;100426.72;5081747;28;19935;-58
2022/11/17 09:17:47;;;;;;;;;;;;;;;5.92;59.84;100428.53;5076991;28;19924;-56
2022/11/17 09:20:13;;;;;;;;;;;;;;;5.91;59.86;100422.44;5080974;28;19935;-56
2022/11/17 09:22:38;;;;;;;;;;;;;;;5.96;60.12;100422.28;5086702;28;19924;-57
2022/11/17 09:25:03;;;;;;;;;;;;;;;5.99;59.89;100432.56;5084087;28;20363;-58
2022/11/17 09:27:29;;;;;;;;;;;;;;;6.02;60.04;100426.41;5084761;28;19924;-56
2022/11/17 09:29:54;;;;;;;;;;;;;;;6.02;59.73;100423.78;5082252;28;19919;-56
2022/11/17 09:32:19;;;;;;;;;;;;;;;6.04;59.63;100428.03;5085698;28;20411;-57
2022/11/17 09:34:45;;;;;;;;;;;;;;;6.04;59.70;100425.41;5082291;28;19928;-55
2022/11/17 09:37:10;;;;;;;;;;;;;;;6.05;59.76;100423.66;5083735;28;19945;-55
2022/11/17 09:39:35;;;;;;;;;;;;;;;6.09;59.75;100417.38;5081482;28;19924;-57
2022/11/17 09:42:01;;;;;;;;;;;;;;;6.15;59.52;100414.50;5084537;28;22144;-57
2022/11/17 09:44:27;;;;;;;;;;;;;;;6.14;59.24;100417.16;5082295;28;20033;-57
2022/11/17 09:47:11;;;;;;;;;;;;;;;6.16;59.37;100410.97;5076834;28;19928;-57
2022/11/17 09:49:48;;;;;;;;;;;;;;;6.17;59.48;100417.91;5081194;28;19940;-56
2022/11/17 09:52:33;;;;;;;;;;;;;;;6.12;59.44;100413.78;5075094;28;19924;-54
2022/11/17 09:55:08;;;;;;;;;;;;;;;6.09;59.92;100419.97;5088188;28;19919;-55
2022/11/17 09:57:39;;;;;;;;;;;;;;;6.12;59.60;100417.25;5090847;28;20008;-56
2022/11/17 10:00:11;;;;;;;;;;;;;;;6.10;59.77;100412.09;5084677;28;19926;-57
2022/11/17 10:02:36;;;;;;;;;;;;;;;6.12;59.40;100413.78;5080400;28;19920;-56
2022/11/17 10:05:03;;;;;;;;;;;;;;;6.10;59.78;100417.31;5082063;28;19930;-58
2022/11/17 10:07:30;;;;;;;;;;;;;;;6.06;60.11;100410.53;5085220;28;19977;-59
2022/11/17 10:09:56;;;;;;;;;;;;;;;6.09;59.91;100409.53;5088307;28;19916;-56
2022/11/17 10:12:25;;;;;;;;;;;;;;;6.13;59.81;100402.41;5092765;28;19926;-57
2022/11/17 10:14:50;;;;;;;;;;;;;;;6.13;59.60;100405.00;5091926;28;20418;-56
2022/11/17 10:17:16;;;;;;;;;;;;;;;6.10;59.66;100409.47;5076978;28;19963;-57
2022/11/17 10:19:44;;;;;;;;;;;;;;;6.10;59.77;100408.63;5089953;28;19947;-57
2022/11/17 10:22:09;;;;;;;;;;;;;;;6.02;59.75;100413.34;5062889;28;19959;-56
2022/11/17 10:24:46;;;;;;;;;;;;;;;5.99;59.77;100414.28;5079718;28;20052;-57
2022/11/17 10:27:29;;;;;;;;;;;;;;;5.91;59.89;100405.94;5084027;28;19945;-57
2022/11/17 10:30:06;;;;;;;;;;;;;;;5.97;59.65;100399.59;5084653;28;19932;-57
2022/11/17 10:32:34;;;;;;;;;;;;;;;6.01;59.92;100412.47;5091348;28;20018;-57
2022/11/17 10:35:14;;;;;;;;;;;;;;;6.03;59.79;100402.81;5084161;28;19928;-57
2022/11/17 10:37:42;;;;;;;;;;;;;;;6.00;59.79;100402.13;5091435;28;20297;-56
2022/11/17 10:40:14;;;;;;;;;;;;;;;6.02;59.76;100403.72;5084325;28;20295;-56
2022/11/17 10:42:41;;;;;;;;;;;;;;;5.95;59.90;100402.28;5089786;28;20008;-56
2022/11/17 10:45:14;;;;;;;;;;;;;;;5.97;59.77;100381.31;5086874;28;19924;-57
2022/11/17 10:47:40;;;;;;;;;;;;;;;5.94;60.00;100397.97;5084175;28;20007;-56
2022/11/17 10:50:11;;;;;;;;;;;;;;;5.98;60.09;100399.53;5085717;28;20042;-57
2022/11/17 10:52:37;;;;;;;;;;;;;;;6.00;59.32;100384.66;5091171;28;19912;-57
2022/11/17 10:55:21;;;;;;;;;;;;;;;6.03;59.73;100384.53;5075824;28;19965;-56
2022/11/17 10:57:49;;;;;;;;;;;;;;;6.06;59.41;100391.38;5086617;28;19915;-57
2022/11/17 11:00:30;;;;;;;;;;;;;;;6.04;59.61;100388.84;5086878;28;19996;-57
2022/11/17 11:03:13;;;;;;;;;;;;;;;6.08;59.25;100379.97;5079500;28;19954;-54
2022/11/17 11:05:53;;;;;;;;;;;;;;;6.13;59.21;100378.88;5084048;28;20405;-57
2022/11/17 11:08:21;;;;;;;;;;;;;;;6.12;59.30;100382.44;5085787;28;19942;-58
2022/11/17 11:10:49;;;;;;;;;;;;;;;6.08;59.09;100376.50;5083990;28;19923;-56
2022/11/17 11:13:32;;;;;;;;;;;;;;;6.06;59.07;100383.53;5087140;28;19927;-57
2022/11/17 11:15:58;;;;;;;;;;;;;;;6.08;59.10;100381.72;5079425;28;19973;-57
2022/11/17 11:18:26;;;;;;;;;;;;;;;6.08;59.39;100377.34;5086555;28;19939;-56
2022/11/17 11:21:01;;;;;;;;;;;;;;;6.10;58.82;100379.88;5078329;28;20420;-56
2022/11/17 11:23:45;;;;;;;;;;;;;;;6.07;59.34;100365.22;5087467;28;19943;-57
2022/11/17 11:26:29;;;;;;;;;;;;;;;6.00;59.35;100369.00;5088979;28;20336;-57
2022/11/17 11:29:02;;;;;;;;;;;;;;;6.03;59.32;100362.81;5085081;28;19977;-56
2022/11/17 11:31:30;;;;;;;;;;;;;;;6.07;59.07;100365.22;5087661;28;20011;-56
2022/11/17 11:34:05;;;;;;;;;;;;;;;6.05;58.84;100367.03;5087997;28;19912;-56
2022/11/17 11:36:30;;;;;;;;;;;;;;;6.08;59.06;100360.81;5083330;28;19924;-56
2022/11/17 11:39:14;;;;;;;;;;;;;;;6.02;59.04;100361.94;5084664;28;20306;-56
2022/11/17 11:41:39;;;;;;;;;;;;;;;6.04;59.20;100365.34;5087202;28;19926;-55
2022/11/17 11:44:23;;;;;;;;;;;;;;;6.09;58.95;100357.28;5088371;28;19915;-56
2022/11/17 11:46:51;;;;;;;;;;;;;;;6.09;59.04;100363.38;5077525;28;20010;-55
2022/11/17 11:49:35;;;;;;;;;;;;;;;6.13;58.76;100352.75;5084257;28;19939;-57
2022/11/17 11:52:03;;;;;;;;;;;;;;;6.13;58.84;100348.41;5087297;28;19955;-56
2022/11/17 11:54:34;;;;;;;;;;;;;;;6.15;58.80;100348.31;5090880;28;20380;-58
2022/11/17 11:56:59;;;;;;;;;;;;;;;6.17;58.69;100343.88;5089572;28;19920;-57
2022/11/17 11:59:39;;;;;;;;;;;;;;;6.21;58.91;100342.81;5085182;28;20345;-56
2022/11/17 12:02:11;;;;;;;;;;;;;;;6.23;58.64;100334.00;5080724;28;19951;-56
2022/11/17 12:04:59;;;;;;;;;;;;;;;6.24;58.57;100340.09;5079826;28;19938;-60
2022/11/17 12:07:25;;;;;;;;;;;;;;;6.25;58.53;100341.78;5078937;28;19941;-55
2022/11/17 12:10:00;;;;;;;;;;;;;;;6.29;58.80;100332.03;5084281;28;19991;-57
2022/11/17 12:12:30;;;;;;;;;;;;;;;6.27;58.75;100328.63;5065738;28;19920;-56
2022/11/17 12:15:06;;;;;;;;;;;;;;;6.28;58.93;100330.31;5085248;28;20601;-56
2022/11/17 12:17:32;;;;;;;;;;;;;;;6.31;58.82;100319.75;5087006;28;20424;-57
2022/11/17 12:19:59;;;;;;;;;;;;;;;6.32;58.71;100310.97;5082134;28;19920;-55
2022/11/17 12:22:27;;;;;;;;;;;;;;;6.31;58.82;100317.97;5049024;28;20391;-57
2022/11/17 12:25:02;;;;;;;;;;;;;;;6.33;58.70;100316.13;5084180;28;19928;-56
2022/11/17 12:27:41;;;;;;;;;;;;;;;6.35;58.67;100324.75;5088079;28;19951;-58
2022/11/17 12:30:25;;;;;;;;;;;;;;;6.22;58.48;100318.41;5084207;28;19924;-56
2022/11/17 12:32:51;;;;;;;;;;;;;;;6.25;58.89;100313.03;5077801;28;19924;-56
2022/11/17 12:35:27;;;;;;;;;;;;;;;6.25;58.85;100315.66;5085968;28;20398;-56
2022/11/17 12:38:11;;;;;;;;;;;;;;;6.28;58.81;100319.88;5085130;28;19927;-57
2022/11/17 12:40:36;;;;;;;;;;;;;;;6.30;58.48;100310.19;5082440;28;19920;-56
2022/11/17 12:43:21;;;;;;;;;;;;;;;6.28;58.76;100315.47;5088141;28;19921;-55
2022/11/17 12:46:02;;;;;;;;;;;;;;;6.24;58.88;100314.78;5079782;28;19939;-57
2022/11/17 12:48:36;;;;;;;;;;;;;;;6.28;58.63;100310.25;5084168;28;19963;-56
2022/11/17 12:51:07;;;;;;;;;;;;;;;6.24;58.62;100308.72;5080678;28;19969;-56
2022/11/17 12:53:35;;;;;;;;;;;;;;;6.30;58.51;100297.13;5082892;28;19916;-59
2022/11/17 12:56:03;;;;;;;;;;;;;;;6.28;58.63;100305.03;5076949;28;20015;-58
2022/11/17 12:58:47;;;;;;;;;;;;;;;6.31;58.38;100302.28;5065683;28;19966;-58
2022/11/17 13:01:24;;;;;;;;;;;;;;;6.25;58.04;100299.97;5087027;28;19947;-56
2022/11/17 13:04:03;;;;;;;;;;;;;;;6.28;58.13;100302.41;5068805;28;19924;-57
2022/11/17 13:06:28;;;;;;;;;;;;;;;6.27;58.04;100303.38;5085175;28;19989;-57
2022/11/17 13:08:57;;;;;;;;;;;;;;;6.28;57.97;100306.81;5085122;28;19920;-56
2022/11/17 13:11:23;;;;;;;;;;;;;;;6.27;58.09;100298.13;5077550;28;19920;-56
2022/11/17 13:13:48;;;;;;;;;;;;;;;6.21;58.12;100301.03;5079089;28;19920;-57
2022/11/17 13:16:20;;;;;;;;;;;;;;;6.18;58.17;100296.81;5082328;28;19921;-56
2022/11/17 13:18:47;;;;;;;;;;;;;;;6.13;58.39;100296.16;5080982;28;19948;-56
2022/11/17 13:21:18;;;;;;;;;;;;;;;6.14;58.25;100299.59;5080125;28;19917;-56
2022/11/17 13:23:44;;;;;;;;;;;;;;;6.14;58.41;100304.81;5083359;28;19920;-57
2022/11/17 13:26:17;;;;;;;;;;;;;;;6.12;58.45;100289.22;5084992;28;19993;-56
2022/11/17 13:28:43;;;;;;;;;;;;;;;6.14;58.25;100295.25;5079700;28;19920;-56
2022/11/17 13:31:15;;;;;;;;;;;;;;;6.13;58.04;100290.94;5079521;28;20568;-56
2022/11/17 13:33:41;;;;;;;;;;;;;;;6.14;58.31;100299.59;5083875;28;19916;-60
2022/11/17 13:36:06;;;;;;;;;;;;;;;6.06;58.46;100285.16;5081845;28;19935;-58
2022/11/17 13:38:31;;;;;;;;;;;;;;;6.07;58.52;100280.75;5085327;28;19938;-57
2022/11/17 13:40:57;;;;;;;;;;;;;;;6.08;58.39;100282.44;5094258;22;19932;-60
2022/11/17 13:43:24;;;;;;;;;;;;;;;6.07;58.33;100281.63;5086317;28;20306;-63
2022/11/17 13:45:50;;;;;;;;;;;;;;;6.07;58.64;100281.63;5088390;28;19928;-60
2022/11/17 13:48:42;;;;;;;;;;;;;;;6.07;58.66;100292.06;5069789;28;19924;-59
2022/11/17 13:51:23;;;;;;;;;;;;;;;6.06;58.71;100285.16;5080767;28;19970;-58
2022/11/17 13:53:53;;;;;;;;;;;;;;;6.07;58.98;100292.06;5087405;28;19912;-59
2022/11/17 13:56:20;;;;;;;;;;;;;;;6.04;58.89;100293.97;5059574;28;19928;-59
2022/11/17 13:58:47;;;;;;;;;;;;;;;6.03;58.93;100285.28;5083593;28;19926;-59
2022/11/17 14:01:13;;;;;;;;;;;;;;;6.02;58.96;100304.47;5087950;28;19920;-59
2022/11/17 14:03:39;;;;;;;;;;;;;;;5.97;59.19;100298.59;5067436;28;20378;-61
2022/11/17 14:06:06;;;;;;;;;;;;;;;5.95;59.19;100292.59;5088543;28;19924;-60
2022/11/17 14:08:33;;;;;;;;;;;;;;;5.96;59.28;100299.53;5068377;28;19912;-61
2022/11/17 14:11:20;;;;;;;;;;;;;;;5.97;59.29;100296.00;5085477;28;19916;-59
2022/11/17 14:13:52;;;;;;;;;;;;;;;5.90;59.75;100305.00;5081877;28;19931;-61
2022/11/17 14:16:20;;;;;;;;;;;;;;;5.85;59.83;100296.53;5089927;28;19916;-60
2022/11/17 14:18:54;;;;;;;;;;;;;;;5.82;59.75;100297.53;5085904;28;19920;-62
2022/11/17 14:21:19;;;;;;;;;;;;;;;5.77;59.96;100295.13;5084942;28;19923;-58
2022/11/17 14:23:44;;;;;;;;;;;;;;;5.77;60.08;100294.25;5081146;28;20305;-59
2022/11/17 14:26:15;;;;;;;;;;;;;;;5.80;59.66;100297.59;5083078;28;19933;-60
2022/11/17 14:28:41;;;;;;;;;;;;;;;5.76;59.65;100301.25;5080752;28;19963;-60
2022/11/17 14:31:10;;;;;;;;;;;;;;;5.77;59.90;100297.75;5084310;28;19955;-60